Terminal Aerodrome Forecast
Issued by NWS

Home | Current Version | Previous Version | Text Only | Print | Product List | Glossary On
Versions: 1 2 3 4 5 6 7 8 9 10 11 12 13 14 15 16 17 18 19 20 21 22 23 24 25 26 27 28 29 30 31 32 33 34 35 36 37 38 39 40 41 42 43 44 45
000
FTUS41 KRNK 022327
TAFLWB
TAF
KLWB 022327Z 0300/0324 36003KT P6SM BKN250
     FM030700 03004KT P6SM SCT025 OVC060
     FM031100 05004KT P6SM OVC025
      TEMPO 0313/0315 -PL OVC012
     FM031500 06004KT 5SM -FZRA BR OVC008
     FM031900 09004KT 4SM -RA BR OVC005 WS020/22040KT=

USA.gov is the U.S. government's official web portal to all federal, state and local government web resources and services.